createdAt,value
2019-02-27T00:01:23.053Z,102560.00
2019-02-27T00:03:53.485Z,102559.00
2019-02-27T00:06:23.876Z,102555.00
2019-02-27T00:08:54.243Z,102560.00
2019-02-27T00:11:24.635Z,102558.00
2019-02-27T00:13:57.991Z,102556.00
2019-02-27T00:16:28.070Z,102560.00
2019-02-27T00:18:59.326Z,102562.00
2019-02-27T00:21:29.808Z,102563.00
2019-02-27T00:24:00.172Z,102559.00
2019-02-27T00:26:31.630Z,102555.00
2019-02-27T00:29:01.994Z,102541.00
2019-02-27T00:31:34.144Z,102545.00
2019-02-27T00:34:04.505Z,102529.00
2019-02-27T00:36:34.899Z,102533.00
2019-02-27T00:39:07.100Z,102530.00
2019-02-27T00:41:37.861Z,102534.00
2019-02-27T00:44:08.232Z,102526.00
2019-02-27T00:46:38.622Z,102524.00
2019-02-27T00:49:08.988Z,102525.00
2019-02-27T00:51:44.670Z,102523.00
2019-02-27T00:54:13.067Z,102520.00
2019-02-27T00:56:45.020Z,102517.00
2019-02-27T00:59:15.517Z,102520.00
2019-02-27T01:01:47.434Z,102518.00
2019-02-27T01:04:17.967Z,102514.00
2019-02-27T01:06:48.364Z,102523.00
2019-02-27T01:09:19.694Z,102522.00
2019-02-27T01:11:51.835Z,102521.00
2019-02-27T01:14:22.157Z,102516.00
2019-02-27T01:16:52.538Z,102516.00
2019-02-27T01:19:22.903Z,102512.00
2019-02-27T01:21:53.293Z,102520.00
2019-02-27T01:24:23.656Z,102520.00
2019-02-27T01:26:54.041Z,102512.00
2019-02-27T01:29:24.424Z,102513.00
2019-02-27T01:31:55.008Z,102507.00
2019-02-27T01:34:26.854Z,102511.00
2019-02-27T01:36:57.985Z,102506.00
2019-02-27T01:39:28.893Z,102511.00
2019-02-27T01:41:59.276Z,102499.00
2019-02-27T01:44:30.709Z,102506.00
2019-02-27T01:47:02.295Z,102515.00
2019-02-27T01:49:33.334Z,102505.00
2019-02-27T01:52:03.721Z,102500.00
2019-02-27T01:54:34.082Z,102492.00
2019-02-27T01:57:04.468Z,102493.00
2019-02-27T01:59:34.823Z,102486.00
2019-02-27T02:02:05.200Z,102487.00
2019-02-27T02:04:36.638Z,102484.00
2019-02-27T02:07:07.380Z,102481.00
2019-02-27T02:09:38.511Z,102476.00
2019-02-27T02:12:19.078Z,102478.00
2019-02-27T02:15:02.426Z,102473.00
2019-02-27T02:18:11.873Z,102471.00
2019-02-27T02:21:04.806Z,102475.00
2019-02-27T02:23:56.832Z,102469.00
2019-02-27T02:26:43.507Z,102469.00
2019-02-27T02:29:39.298Z,102461.00
2019-02-27T02:32:29.518Z,102464.00
2019-02-27T02:35:07.146Z,102468.00
2019-02-27T02:38:14.507Z,102454.00
2019-02-27T02:40:49.481Z,102449.00
2019-02-27T02:43:24.489Z,102454.00
2019-02-27T02:46:09.802Z,102445.00
2019-02-27T02:49:08.041Z,102446.00
2019-02-27T02:52:14.392Z,102449.00
2019-02-27T02:54:58.007Z,102440.00
2019-02-27T02:57:50.573Z,102438.00
2019-02-27T03:00:39.086Z,102431.00
2019-02-27T03:03:21.884Z,102430.00
2019-02-27T03:06:16.565Z,102424.00
2019-02-27T03:09:10.953Z,102424.00
2019-02-27T03:12:29.697Z,102424.00
2019-02-27T03:15:19.034Z,102417.00
2019-02-27T03:18:32.841Z,102418.00
2019-02-27T03:21:27.299Z,102414.00
2019-02-27T03:24:08.446Z,102420.00
2019-02-27T03:26:44.494Z,102421.00
2019-02-27T03:29:34.432Z,102415.00
2019-02-27T03:35:28.361Z,102399.00
2019-02-27T03:38:24.908Z,102403.00
2019-02-27T03:41:08.638Z,102408.00
2019-02-27T03:44:07.502Z,102396.00
2019-02-27T03:46:45.146Z,102398.00
2019-02-27T03:49:39.751Z,102394.00
2019-02-27T03:52:48.710Z,102397.00
2019-02-27T03:56:13.749Z,102389.00
2019-02-27T03:58:51.650Z,102391.00
2019-02-27T04:01:38.012Z,102389.00
2019-02-27T04:04:30.569Z,102396.00
2019-02-27T04:07:36.028Z,102389.00
2019-02-27T04:10:06.826Z,102392.00
2019-02-27T04:12:37.178Z,102390.00
2019-02-27T04:15:09.701Z,102392.00
2019-02-27T04:17:38.438Z,102386.00
2019-02-27T04:20:28.154Z,102372.00
2019-02-27T04:22:58.518Z,102372.00
2019-02-27T04:25:31.424Z,102369.00
2019-02-27T04:28:00.965Z,102378.00
2019-02-27T04:30:31.347Z,102376.00
2019-02-27T04:33:01.710Z,102381.00
2019-02-27T04:35:34.201Z,102374.00
2019-02-27T04:38:04.154Z,102378.00
2019-02-27T04:40:34.536Z,102365.00
2019-02-27T04:43:04.898Z,102371.00
2019-02-27T04:45:35.290Z,102363.00
2019-02-27T04:48:05.677Z,102361.00
2019-02-27T04:50:36.027Z,102363.00
2019-02-27T04:53:06.423Z,102359.00
2019-02-27T04:55:36.771Z,102367.00
2019-02-27T04:58:09.082Z,102360.00
2019-02-27T05:00:39.253Z,102361.00
2019-02-27T05:03:09.663Z,102362.00
2019-02-27T05:05:41.378Z,102352.00
2019-02-27T05:08:12.187Z,102348.00
2019-02-27T05:10:42.594Z,102358.00
2019-02-27T05:13:13.004Z,102350.00
2019-02-27T05:15:43.471Z,102344.00
2019-02-27T05:18:13.882Z,102347.00
2019-02-27T05:20:45.678Z,102354.00
2019-02-27T05:23:16.198Z,102346.00
2019-02-27T05:25:46.555Z,102350.00
2019-02-27T05:28:16.941Z,102348.00
2019-02-27T05:30:47.310Z,102346.00
2019-02-27T05:33:17.694Z,102348.00
2019-02-27T05:35:48.057Z,102344.00
2019-02-27T05:38:18.452Z,102341.00
2019-02-27T05:40:48.804Z,102351.00
2019-02-27T05:43:19.184Z,102348.00
2019-02-27T05:45:49.552Z,102350.00
2019-02-27T05:48:20.208Z,102341.00
2019-02-27T05:50:51.009Z,102337.00
2019-02-27T05:53:22.292Z,102340.00
2019-02-27T05:55:53.224Z,102336.00
2019-02-27T05:58:23.634Z,102333.00
2019-02-27T06:00:53.977Z,102327.00
2019-02-27T06:03:24.360Z,102330.00
2019-02-27T06:05:54.749Z,102335.00
2019-02-27T06:08:25.133Z,102333.00
2019-02-27T06:10:56.207Z,102334.00
2019-02-27T06:13:26.772Z,102336.00
2019-02-27T06:15:57.129Z,102329.00
2019-02-27T06:18:27.507Z,102329.00
2019-02-27T06:20:57.874Z,102328.00
2019-02-27T06:23:28.257Z,102327.00
2019-02-27T06:25:59.375Z,102322.00
2019-02-27T06:28:30.594Z,102331.00
2019-02-27T06:31:02.525Z,102326.00
2019-02-27T06:33:33.029Z,102330.00
2019-02-27T06:36:05.414Z,102315.00
2019-02-27T06:38:35.468Z,102321.00
2019-02-27T06:41:05.836Z,102317.00
2019-02-27T06:43:36.223Z,102319.00
2019-02-27T06:46:06.592Z,102315.00
2019-02-27T06:48:36.972Z,102307.00
2019-02-27T06:51:07.336Z,102310.00
2019-02-27T06:53:37.720Z,102309.00
2019-02-27T06:56:08.152Z,102304.00
2019-02-27T06:58:38.531Z,102306.00
2019-02-27T07:01:09.691Z,102304.00
2019-02-27T07:03:51.561Z,102302.00
2019-02-27T07:06:22.258Z,102296.00
2019-02-27T07:08:52.693Z,102301.00
2019-02-27T07:11:23.053Z,102291.00
2019-02-27T07:13:53.431Z,102298.00
2019-02-27T07:16:23.824Z,102290.00
2019-02-27T07:18:54.183Z,102289.00
2019-02-27T07:21:24.611Z,102306.00
2019-02-27T07:23:58.591Z,102302.00
2019-02-27T07:26:27.208Z,102288.00
2019-02-27T07:28:57.587Z,102295.00
2019-02-27T07:31:27.948Z,102294.00
2019-02-27T07:33:58.328Z,102284.00
2019-02-27T07:36:28.742Z,102280.00
2019-02-27T07:38:59.122Z,102282.00
2019-02-27T07:41:29.484Z,102277.00
2019-02-27T07:43:59.859Z,102278.00
2019-02-27T07:46:30.215Z,102275.00
2019-02-27T07:49:01.550Z,102275.00
2019-02-27T07:51:31.921Z,102277.00
2019-02-27T07:54:03.922Z,102272.00
2019-02-27T07:56:34.447Z,102277.00
2019-02-27T07:59:04.836Z,102281.00
2019-02-27T08:01:43.539Z,102283.00
2019-02-27T08:04:07.307Z,102276.00
2019-02-27T08:06:38.483Z,102275.00
2019-02-27T08:09:09.302Z,102274.00
2019-02-27T08:11:40.033Z,102281.00
2019-02-27T08:14:10.421Z,102277.00
2019-02-27T08:16:41.048Z,102272.00
2019-02-27T08:19:12.283Z,102275.00
2019-02-27T08:21:42.813Z,102266.00
2019-02-27T08:24:14.360Z,102273.00
2019-02-27T08:26:44.912Z,102264.00
2019-02-27T08:29:28.000Z,102271.00
2019-02-27T08:32:00.759Z,102272.00
2019-02-27T08:34:30.450Z,102262.00
2019-02-27T08:37:00.813Z,102270.00
2019-02-27T08:39:31.301Z,102257.00
2019-02-27T08:42:03.594Z,102249.00
2019-02-27T08:44:33.751Z,102248.00
2019-02-27T08:47:04.374Z,102237.00
2019-02-27T08:49:34.791Z,102244.00
2019-02-27T08:52:05.162Z,102247.00
2019-02-27T08:54:35.553Z,102248.00
2019-02-27T08:57:06.991Z,102241.00
2019-02-27T08:59:39.823Z,102244.00
2019-02-27T09:02:10.287Z,102239.00
2019-02-27T09:04:42.853Z,102239.00
2019-02-27T09:07:12.745Z,102237.00
2019-02-27T09:09:43.132Z,102239.00
2019-02-27T09:12:14.070Z,102236.00
2019-02-27T09:14:44.474Z,102226.00
2019-02-27T09:17:14.837Z,102220.00
2019-02-27T09:19:46.279Z,102224.00
2019-02-27T09:22:16.922Z,102218.00
2019-02-27T09:24:47.309Z,102224.00
2019-02-27T09:27:17.703Z,102224.00
2019-02-27T09:29:49.366Z,102212.00
2019-02-27T09:32:20.457Z,102213.00
2019-02-27T09:34:50.936Z,102213.00
2019-02-27T09:37:21.300Z,102207.00
2019-02-27T09:39:51.691Z,102207.00
2019-02-27T09:42:22.065Z,102199.00
2019-02-27T09:44:52.625Z,102187.00
2019-02-27T09:47:23.232Z,102192.00
2019-02-27T09:49:55.092Z,102188.00
2019-02-27T09:52:27.808Z,102180.00
2019-02-27T09:54:57.563Z,102189.00
2019-02-27T09:57:27.929Z,102188.00
2019-02-27T09:59:58.314Z,102176.00
2019-02-27T10:02:28.723Z,102174.00
2019-02-27T10:05:03.073Z,102177.00
2019-02-27T10:07:31.334Z,102180.00
2019-02-27T10:10:02.906Z,102186.00
2019-02-27T10:12:34.230Z,102181.00
2019-02-27T10:15:05.575Z,102175.00
2019-02-27T10:17:36.042Z,102181.00
2019-02-27T10:20:08.942Z,102175.00
2019-02-27T10:22:39.338Z,102171.00
2019-02-27T10:25:09.927Z,102175.00
2019-02-27T10:27:40.295Z,102176.00
2019-02-27T10:30:16.647Z,102176.00
2019-02-27T10:32:46.863Z,102163.00
2019-02-27T10:35:17.622Z,102159.00
2019-02-27T10:37:50.801Z,102157.00
2019-02-27T10:40:26.340Z,102145.00
2019-02-27T10:42:57.151Z,102145.00
2019-02-27T10:45:27.573Z,102146.00
2019-02-27T10:47:57.941Z,102151.00
2019-02-27T10:50:28.340Z,102137.00
2019-02-27T10:52:58.710Z,102141.00
2019-02-27T10:55:29.100Z,102131.00
2019-02-27T10:57:59.496Z,102126.00
2019-02-27T11:00:35.927Z,102120.00
2019-02-27T11:03:06.558Z,102117.00
2019-02-27T11:05:39.058Z,102112.00
2019-02-27T11:08:09.431Z,102111.00
2019-02-27T11:10:39.825Z,102104.00
2019-02-27T11:13:10.184Z,102105.00
2019-02-27T11:15:41.535Z,102109.00
2019-02-27T11:18:12.633Z,102102.00
2019-02-27T11:20:43.025Z,102105.00
2019-02-27T11:23:13.393Z,102108.00
2019-02-27T11:25:43.787Z,102091.00
2019-02-27T11:28:14.163Z,102090.00
2019-02-27T11:30:46.334Z,102082.00
2019-02-27T11:33:25.760Z,102084.00
2019-02-27T11:35:48.796Z,102084.00
2019-02-27T11:38:24.155Z,102086.00
2019-02-27T11:40:51.324Z,102080.00
2019-02-27T11:43:21.693Z,102073.00
2019-02-27T11:45:52.092Z,102066.00
2019-02-27T11:48:22.895Z,102060.00
2019-02-27T11:50:53.828Z,102054.00
2019-02-27T11:53:24.293Z,102051.00
2019-02-27T11:55:54.692Z,102048.00
2019-02-27T11:58:25.081Z,102040.00
2019-02-27T12:00:55.462Z,102027.00
2019-02-27T12:03:25.855Z,102021.00
2019-02-27T12:05:56.228Z,102015.00
2019-02-27T12:08:26.890Z,102015.00
2019-02-27T12:10:58.343Z,102013.00
2019-02-27T12:13:28.807Z,102026.00
2019-02-27T12:15:59.173Z,102019.00
2019-02-27T12:18:32.213Z,102004.00
2019-02-27T12:21:01.629Z,102008.00
2019-02-27T12:23:32.020Z,102000.00
2019-02-27T12:26:02.617Z,101990.00
2019-02-27T12:28:34.720Z,101989.00
2019-02-27T12:31:05.265Z,101984.00
2019-02-27T12:33:35.658Z,101973.00
2019-02-27T12:36:06.025Z,101970.00
2019-02-27T12:38:36.412Z,101973.00
2019-02-27T12:41:09.578Z,101961.00
2019-02-27T12:43:39.971Z,101963.00
2019-02-27T12:46:10.348Z,101963.00
2019-02-27T12:48:40.743Z,101955.00
2019-02-27T12:51:11.110Z,101956.00
2019-02-27T12:53:42.433Z,101955.00
2019-02-27T12:56:12.947Z,101963.00
2019-02-27T12:58:43.336Z,101961.00
2019-02-27T13:01:16.155Z,101965.00
2019-02-27T13:03:45.786Z,101960.00
2019-02-27T13:06:16.169Z,101955.00
2019-02-27T13:08:46.732Z,101951.00
2019-02-27T13:11:17.097Z,101942.00
2019-02-27T13:13:47.485Z,101930.00
2019-02-27T13:16:17.857Z,101921.00
2019-02-27T13:18:48.241Z,101923.00
2019-02-27T13:21:20.582Z,101918.00
2019-02-27T13:23:50.692Z,101903.00
2019-02-27T13:26:21.081Z,101911.00
2019-02-27T13:28:51.535Z,101906.00
2019-02-27T13:31:21.929Z,101897.00
2019-02-27T13:33:52.304Z,101893.00
2019-02-27T13:36:22.729Z,101896.00
2019-02-27T13:38:53.082Z,101900.00
2019-02-27T13:41:23.886Z,101884.00
2019-02-27T13:43:54.320Z,101891.00
2019-02-27T13:46:24.735Z,101876.00
2019-02-27T13:48:55.108Z,101870.00
2019-02-27T13:51:25.492Z,101852.00
2019-02-27T13:54:00.305Z,101849.00
2019-02-27T13:56:28.187Z,101848.00
2019-02-27T13:58:58.523Z,101843.00
2019-02-27T14:01:29.358Z,101840.00
2019-02-27T14:03:59.754Z,101838.00
2019-02-27T14:06:30.144Z,101834.00
2019-02-27T14:09:00.515Z,101824.00
2019-02-27T14:11:32.524Z,101815.00
2019-02-27T14:14:02.907Z,101807.00
2019-02-27T14:16:34.738Z,101791.00
2019-02-27T14:19:05.918Z,101796.00
2019-02-27T14:21:36.350Z,101787.00
2019-02-27T14:24:06.675Z,101786.00
2019-02-27T14:26:38.351Z,101786.00
2019-02-27T14:29:09.149Z,101777.00
2019-02-27T14:31:40.112Z,101777.00
2019-02-27T14:34:11.622Z,101772.00
2019-02-27T14:36:42.513Z,101769.00
2019-02-27T14:39:14.798Z,101769.00
2019-02-27T14:41:47.893Z,101772.00
2019-02-27T14:44:17.259Z,101765.00
2019-02-27T14:46:47.648Z,101770.00
2019-02-27T14:49:18.018Z,101772.00
2019-02-27T14:51:48.410Z,101763.00
2019-02-27T14:54:18.778Z,101763.00
2019-02-27T14:56:50.247Z,101761.00
2019-02-27T14:59:20.692Z,101760.00
2019-02-27T15:01:51.086Z,101753.00
2019-02-27T15:04:21.532Z,101739.00
2019-02-27T15:06:51.928Z,101736.00
2019-02-27T15:09:22.366Z,101733.00
2019-02-27T15:11:52.760Z,101727.00
2019-02-27T15:14:23.225Z,101714.00
2019-02-27T15:16:53.606Z,101710.00
2019-02-27T15:19:23.967Z,101700.00
2019-02-27T15:21:54.431Z,101694.00
2019-02-27T15:24:24.803Z,101691.00
2019-02-27T15:26:55.201Z,101690.00
2019-02-27T15:29:25.569Z,101686.00
2019-02-27T15:31:56.059Z,101677.00
2019-02-27T15:34:26.422Z,101682.00
2019-02-27T15:36:56.889Z,101672.00
2019-02-27T15:39:28.012Z,101676.00
2019-02-27T15:41:58.524Z,101678.00
2019-02-27T15:44:31.363Z,101662.00
2019-02-27T15:47:00.964Z,101658.00
2019-02-27T15:49:32.603Z,101656.00
2019-02-27T15:52:06.422Z,101653.00
2019-02-27T15:54:35.086Z,101649.00
2019-02-27T15:57:05.479Z,101650.00
2019-02-27T15:59:40.877Z,101635.00
2019-02-27T16:02:08.351Z,101629.00
2019-02-27T16:04:38.739Z,101621.00
2019-02-27T16:07:11.159Z,101609.00
2019-02-27T16:09:42.327Z,101600.00
2019-02-27T16:12:12.753Z,101602.00
2019-02-27T16:14:43.701Z,101607.00
2019-02-27T16:17:14.141Z,101606.00
2019-02-27T16:19:44.661Z,101598.00
2019-02-27T16:22:15.779Z,101606.00
2019-02-27T16:24:46.144Z,101596.00
2019-02-27T16:27:16.572Z,101604.00
2019-02-27T16:29:46.937Z,101597.00
2019-02-27T16:32:17.444Z,101591.00
2019-02-27T16:34:47.812Z,101591.00
2019-02-27T16:37:22.854Z,101593.00
2019-02-27T16:39:51.534Z,101585.00
2019-02-27T16:42:22.027Z,101576.00
2019-02-27T16:45:19.719Z,101578.00
2019-02-27T16:47:50.111Z,101567.00
2019-02-27T16:50:26.370Z,101568.00
2019-02-27T16:52:56.735Z,101562.00
2019-02-27T16:55:28.374Z,101566.00
2019-02-27T16:58:18.179Z,101559.00
2019-02-27T17:00:48.630Z,101559.00
2019-02-27T17:03:19.038Z,101556.00
2019-02-27T17:05:49.832Z,101559.00
2019-02-27T17:08:20.358Z,101557.00
2019-02-27T17:10:51.943Z,101540.00
2019-02-27T17:13:22.903Z,101551.00
2019-02-27T17:15:53.255Z,101537.00
2019-02-27T17:18:27.905Z,101540.00
2019-02-27T17:20:55.735Z,101531.00
2019-02-27T17:23:26.158Z,101530.00
2019-02-27T17:25:56.611Z,101528.00
2019-02-27T17:28:28.129Z,101533.00
2019-02-27T17:31:01.789Z,101535.00
2019-02-27T17:33:31.701Z,101527.00
2019-02-27T17:36:02.059Z,101528.00
2019-02-27T17:38:32.463Z,101528.00
2019-02-27T17:41:02.807Z,101520.00
2019-02-27T17:43:33.188Z,101515.00
2019-02-27T17:46:04.764Z,101509.00
2019-02-27T17:48:35.182Z,101503.00
2019-02-27T17:51:06.462Z,101502.00
2019-02-27T17:53:37.102Z,101495.00
2019-02-27T17:56:07.434Z,101490.00
2019-02-27T17:58:37.821Z,101481.00
2019-02-27T18:01:09.825Z,101478.00
2019-02-27T18:03:41.773Z,101480.00
2019-02-27T18:06:12.252Z,101472.00
2019-02-27T18:08:42.826Z,101476.00
2019-02-27T18:11:15.630Z,101476.00
2019-02-27T18:13:47.670Z,101460.00
2019-02-27T18:16:17.894Z,101459.00
2019-02-27T18:18:48.670Z,101457.00
2019-02-27T18:21:19.201Z,101446.00
2019-02-27T18:23:49.658Z,101449.00
2019-02-27T18:26:20.083Z,101447.00
2019-02-27T18:28:50.881Z,101446.00
2019-02-27T18:31:21.320Z,101449.00
2019-02-27T18:33:51.776Z,101432.00
2019-02-27T18:36:22.206Z,101430.00
2019-02-27T18:38:52.733Z,101434.00
2019-02-27T18:41:23.115Z,101430.00
2019-02-27T18:43:53.866Z,101433.00
2019-02-27T18:46:25.546Z,101418.00
2019-02-27T18:48:56.043Z,101415.00
2019-02-27T18:51:26.567Z,101406.00
2019-02-27T18:53:58.012Z,101405.00
2019-02-27T18:56:28.552Z,101395.00
2019-02-27T18:58:59.156Z,101385.00
2019-02-27T19:01:29.586Z,101386.00
2019-02-27T19:04:01.240Z,101384.00
2019-02-27T19:06:32.951Z,101378.00
2019-02-27T19:09:04.033Z,101370.00
2019-02-27T19:11:36.129Z,101377.00
2019-02-27T19:14:06.719Z,101372.00
2019-02-27T19:16:37.102Z,101368.00
2019-02-27T19:19:07.627Z,101366.00
2019-02-27T19:21:38.015Z,101367.00
2019-02-27T19:24:08.554Z,101346.00
2019-02-27T19:26:41.740Z,101342.00
2019-02-27T19:29:11.346Z,101329.00
2019-02-27T19:31:41.801Z,101320.00
2019-02-27T19:34:12.227Z,101322.00
2019-02-27T19:36:42.612Z,101319.00
2019-02-27T19:39:13.041Z,101314.00
2019-02-27T19:41:43.572Z,101314.00
2019-02-27T19:44:14.144Z,101301.00
2019-02-27T19:46:47.420Z,101306.00
2019-02-27T19:49:16.583Z,101290.00
2019-02-27T19:51:47.043Z,101292.00
2019-02-27T19:54:18.612Z,101295.00
2019-02-27T19:56:49.124Z,101295.00
2019-02-27T19:59:19.478Z,101292.00
2019-02-27T20:01:50.319Z,101280.00
2019-02-27T20:04:20.670Z,101279.00
2019-02-27T20:06:51.419Z,101273.00
2019-02-27T20:09:22.183Z,101258.00
2019-02-27T20:11:52.569Z,101257.00
2019-02-27T20:14:22.998Z,101253.00
2019-02-27T20:16:55.224Z,101250.00
2019-02-27T20:19:46.139Z,101242.00
2019-02-27T20:22:18.998Z,101234.00
2019-02-27T20:24:48.980Z,101227.00
2019-02-27T20:27:19.543Z,101236.00
2019-02-27T20:29:49.908Z,101220.00
2019-02-27T20:32:20.305Z,101221.00
2019-02-27T20:34:51.623Z,101216.00
2019-02-27T20:37:22.079Z,101216.00
2019-02-27T20:39:58.286Z,101204.00
2019-02-27T20:42:24.543Z,101199.00
2019-02-27T20:44:54.894Z,101195.00
2019-02-27T20:47:25.281Z,101196.00
2019-02-27T20:49:55.639Z,101185.00
2019-02-27T20:52:27.014Z,101183.00
2019-02-27T20:54:58.836Z,101176.00
2019-02-27T20:57:29.448Z,101168.00
2019-02-27T21:00:02.144Z,101167.00
2019-02-27T21:02:32.666Z,101165.00
2019-02-27T21:05:03.018Z,101163.00
2019-02-27T21:07:35.358Z,101156.00
2019-02-27T21:10:10.277Z,101152.00
2019-02-27T21:12:42.589Z,101144.00
2019-02-27T21:15:15.135Z,101144.00
2019-02-27T21:17:45.520Z,101136.00
2019-02-27T21:20:16.663Z,101128.00
2019-02-27T21:22:47.145Z,101131.00
2019-02-27T21:25:17.506Z,101125.00
2019-02-27T21:27:48.133Z,101123.00
2019-02-27T21:30:23.329Z,101113.00
2019-02-27T21:32:53.710Z,101110.00
2019-02-27T21:35:28.838Z,101107.00
2019-02-27T21:37:56.461Z,101102.00
2019-02-27T21:40:26.858Z,101102.00
2019-02-27T21:42:57.210Z,101096.00
2019-02-27T21:45:27.563Z,101101.00
2019-02-27T21:47:57.993Z,101091.00
2019-02-27T21:50:28.346Z,101099.00
2019-02-27T21:52:58.797Z,101083.00
2019-02-27T21:55:29.165Z,101077.00
2019-02-27T21:57:59.713Z,101077.00
2019-02-27T22:00:30.447Z,101062.00
2019-02-27T22:03:03.634Z,101066.00
2019-02-27T22:05:42.289Z,101067.00
2019-02-27T22:08:06.099Z,101056.00
2019-02-27T22:10:36.536Z,101049.00
2019-02-27T22:13:10.587Z,101055.00
2019-02-27T22:15:38.975Z,101042.00
2019-02-27T22:18:11.803Z,101036.00
2019-02-27T22:20:41.406Z,101024.00
2019-02-27T22:23:12.738Z,101030.00
2019-02-27T22:25:45.057Z,101023.00
2019-02-27T22:28:17.340Z,101018.00
2019-02-27T22:30:47.562Z,101022.00
2019-02-27T22:33:21.949Z,101023.00
2019-02-27T22:35:49.992Z,101017.00
2019-02-27T22:38:25.684Z,101021.00
2019-02-27T22:40:52.429Z,101016.00
2019-02-27T22:43:22.874Z,101013.00
2019-02-27T22:45:53.250Z,101006.00
2019-02-27T22:48:27.700Z,101007.00
2019-02-27T22:50:55.675Z,101009.00
2019-02-27T22:53:26.243Z,100998.00
2019-02-27T22:55:58.107Z,100997.00
2019-02-27T22:58:28.475Z,100987.00
2019-02-27T23:01:10.240Z,100988.00
2019-02-27T23:03:50.889Z,100987.00
2019-02-27T23:06:21.502Z,100973.00
2019-02-27T23:08:54.376Z,100970.00
2019-02-27T23:11:24.448Z,100958.00
2019-02-27T23:13:54.932Z,100951.00
2019-02-27T23:16:29.810Z,100942.00
2019-02-27T23:19:01.121Z,100934.00
2019-02-27T23:21:31.476Z,100937.00
2019-02-27T23:24:07.198Z,100929.00
2019-02-27T23:26:36.821Z,100925.00
2019-02-27T23:29:07.196Z,100919.00
2019-02-27T23:31:37.557Z,100913.00
2019-02-27T23:34:08.614Z,100900.00
2019-02-27T23:36:39.080Z,100905.00
2019-02-27T23:39:10.195Z,100900.00
2019-02-27T23:41:40.549Z,100897.00
2019-02-27T23:44:12.200Z,100900.00
2019-02-27T23:46:49.768Z,100901.00
2019-02-27T23:49:14.828Z,100891.00
2019-02-27T23:51:47.700Z,100890.00
2019-02-27T23:54:17.315Z,100883.00
2019-02-27T23:56:47.733Z,100885.00
2019-02-27T23:59:18.109Z,100881.00
